createdAt,value
2023-02-09T00:01:24.121Z,97.40
2023-02-09T00:03:53.641Z,97.40
2023-02-09T00:06:26.123Z,97.40
2023-02-09T00:08:54.670Z,97.40
2023-02-09T00:11:46.290Z,97.40
2023-02-09T00:14:16.023Z,97.40
2023-02-09T00:16:44.419Z,97.40
2023-02-09T00:19:13.736Z,97.40
2023-02-09T00:21:43.531Z,97.40
2023-02-09T00:24:12.058Z,97.40
2023-02-09T00:26:41.560Z,97.40
2023-02-09T00:29:10.386Z,97.40
2023-02-09T00:31:39.126Z,97.40
2023-02-09T00:34:08.169Z,97.40
2023-02-09T00:36:36.675Z,97.40
2023-02-09T00:39:06.429Z,97.40
2023-02-09T00:41:52.486Z,97.40
2023-02-09T00:44:20.998Z,97.40
2023-02-09T00:46:49.281Z,97.40
2023-02-09T00:49:17.743Z,97.40
2023-02-09T00:51:46.478Z,97.40
2023-02-09T00:54:17.017Z,97.40
2023-02-09T00:56:47.018Z,97.40
2023-02-09T00:59:15.252Z,97.40
2023-02-09T01:01:43.483Z,97.40
2023-02-09T01:04:12.244Z,97.40
2023-02-09T01:06:40.784Z,97.40
2023-02-09T01:09:09.113Z,97.40
2023-02-09T01:11:38.680Z,97.40
2023-02-09T01:14:07.027Z,97.40
2023-02-09T01:16:35.329Z,97.40
2023-02-09T01:19:04.850Z,97.40
2023-02-09T01:21:33.217Z,97.40
2023-02-09T01:24:01.536Z,97.40
2023-02-09T01:26:29.812Z,97.40
2023-02-09T01:28:59.538Z,97.40
2023-02-09T01:31:32.062Z,97.40
2023-02-09T01:34:03.398Z,97.40
2023-02-09T01:36:34.347Z,97.40
2023-02-09T01:39:03.973Z,97.40
2023-02-09T01:41:34.073Z,97.40
2023-02-09T01:44:07.599Z,97.40
2023-02-09T01:46:37.199Z,97.40
2023-02-09T01:49:09.958Z,97.40
2023-02-09T01:51:43.410Z,97.40
2023-02-09T01:54:17.545Z,97.40
2023-02-09T01:56:51.290Z,97.40
2023-02-09T01:59:21.243Z,97.40
2023-02-09T02:01:49.528Z,97.40
2023-02-09T02:04:18.170Z,97.40
2023-02-09T02:06:46.834Z,97.40
2023-02-09T02:09:17.556Z,97.40
2023-02-09T02:11:49.034Z,97.40
2023-02-09T02:14:32.990Z,97.40
2023-02-09T02:17:20.973Z,97.40
2023-02-09T02:20:35.051Z,97.40
2023-02-09T02:23:16.966Z,97.40
2023-02-09T02:26:32.954Z,97.40
2023-02-09T02:29:40.174Z,97.40
2023-02-09T02:32:34.083Z,97.40
2023-02-09T02:35:07.836Z,97.40
2023-02-09T02:37:52.686Z,97.40
2023-02-09T02:40:35.480Z,97.40
2023-02-09T02:43:11.606Z,97.40
2023-02-09T02:45:44.777Z,97.40
2023-02-09T02:48:35.179Z,97.40
2023-02-09T02:51:08.992Z,97.40
2023-02-09T02:53:39.129Z,97.40
2023-02-09T02:56:13.304Z,97.40
2023-02-09T02:58:43.737Z,97.40
2023-02-09T03:01:17.521Z,97.40
2023-02-09T03:03:48.404Z,97.40
2023-02-09T03:06:17.210Z,97.40
2023-02-09T03:08:51.539Z,97.40
2023-02-09T03:11:23.080Z,97.40
2023-02-09T03:14:21.821Z,97.40
2023-02-09T03:20:02.486Z,97.40
2023-02-09T03:22:36.014Z,97.40
2023-02-09T03:25:09.549Z,97.40
2023-02-09T03:27:42.576Z,97.40
2023-02-09T03:30:15.571Z,97.40
2023-02-09T03:32:47.062Z,97.40
2023-02-09T03:35:20.573Z,97.40
2023-02-09T03:37:48.932Z,97.40
2023-02-09T03:40:19.280Z,97.40
2023-02-09T03:42:47.536Z,97.40
2023-02-09T03:45:15.748Z,97.40
2023-02-09T03:47:43.940Z,97.40
2023-02-09T03:50:12.081Z,97.40
2023-02-09T03:52:41.579Z,97.40
2023-02-09T03:55:09.915Z,97.40
2023-02-09T03:57:39.078Z,97.40
2023-02-09T04:00:09.762Z,97.40
2023-02-09T04:02:43.263Z,97.40
2023-02-09T04:05:12.490Z,97.40
2023-02-09T04:07:42.262Z,97.40
2023-02-09T04:10:11.222Z,97.40
2023-02-09T04:12:39.355Z,97.40
2023-02-09T04:15:08.580Z,97.40
2023-02-09T04:17:36.842Z,97.40
2023-02-09T04:20:05.960Z,97.40
2023-02-09T04:22:34.405Z,97.40
2023-02-09T04:25:04.450Z,97.40
2023-02-09T04:27:32.667Z,97.40
2023-02-09T04:30:00.771Z,97.40
2023-02-09T04:32:28.885Z,97.40
2023-02-09T04:34:57.486Z,97.40
2023-02-09T04:37:25.616Z,97.40
2023-02-09T04:39:53.845Z,97.40
2023-02-09T04:42:24.711Z,97.40
2023-02-09T04:44:52.954Z,97.40
2023-02-09T04:47:21.197Z,97.40
2023-02-09T04:49:49.395Z,97.40
2023-02-09T04:52:18.573Z,97.40
2023-02-09T04:54:46.788Z,97.40
2023-02-09T04:57:32.296Z,97.40
2023-02-09T05:00:01.846Z,97.40
2023-02-09T05:02:29.982Z,97.40
2023-02-09T05:04:58.337Z,97.40
2023-02-09T05:07:26.832Z,97.40
2023-02-09T05:09:54.979Z,97.40
2023-02-09T05:12:23.117Z,97.40
2023-02-09T05:14:51.269Z,97.40
2023-02-09T05:17:21.148Z,97.40
2023-02-09T05:19:49.450Z,97.40
2023-02-09T05:22:17.888Z,97.40
2023-02-09T05:24:46.034Z,97.40
2023-02-09T05:27:14.186Z,97.40
2023-02-09T05:29:42.494Z,97.40
2023-02-09T05:32:10.798Z,97.40
2023-02-09T05:34:40.487Z,97.40
2023-02-09T05:37:08.855Z,97.40
2023-02-09T05:39:37.037Z,97.40
2023-02-09T05:42:17.371Z,97.40
2023-02-09T05:44:47.026Z,97.40
2023-02-09T05:47:17.563Z,97.40
2023-02-09T05:49:47.118Z,97.40
2023-02-09T05:52:16.616Z,97.40
2023-02-09T05:54:45.165Z,97.40
2023-02-09T05:57:13.969Z,97.40
2023-02-09T05:59:42.554Z,97.40
2023-02-09T06:02:10.937Z,97.40
2023-02-09T06:04:39.419Z,97.40
2023-02-09T06:07:11.610Z,97.40
2023-02-09T06:09:40.091Z,97.40
2023-02-09T06:12:08.430Z,97.40
2023-02-09T06:14:36.647Z,97.40
2023-02-09T06:17:04.846Z,97.40
2023-02-09T06:19:33.102Z,97.40
2023-02-09T06:22:01.275Z,97.40
2023-02-09T06:24:31.218Z,97.40
2023-02-09T06:26:59.514Z,97.40
2023-02-09T06:29:27.899Z,97.40
2023-02-09T06:31:56.188Z,97.40
2023-02-09T06:34:25.550Z,97.40
2023-02-09T06:36:53.695Z,97.40
2023-02-09T06:39:21.882Z,97.40
2023-02-09T06:41:52.246Z,97.40
2023-02-09T06:44:20.674Z,97.40
2023-02-09T06:46:49.156Z,97.40
2023-02-09T06:49:18.829Z,97.40
2023-02-09T06:51:47.273Z,97.40
2023-02-09T06:54:15.582Z,97.40
2023-02-09T06:56:43.919Z,97.40
2023-02-09T06:59:13.525Z,97.40
2023-02-09T07:01:42.067Z,97.40
2023-02-09T07:04:43.731Z,97.40
2023-02-09T07:07:21.682Z,97.40
2023-02-09T07:17:44.751Z,97.40
2023-02-09T07:20:14.050Z,97.40
2023-02-09T07:25:57.292Z,97.40
2023-02-09T07:28:25.584Z,97.40
2023-02-09T07:30:54.378Z,97.40
2023-02-09T07:33:23.964Z,97.40
2023-02-09T07:35:52.167Z,97.40
2023-02-09T07:38:21.147Z,97.40
2023-02-09T07:48:44.255Z,97.40
2023-02-09T07:51:15.903Z,97.40
2023-02-09T07:54:14.217Z,97.40
2023-02-09T07:56:42.716Z,97.40
2023-02-09T08:02:23.126Z,97.40
2023-02-09T08:05:01.561Z,97.40
2023-02-09T08:07:30.748Z,97.40
2023-02-09T08:14:04.564Z,97.40
2023-02-09T08:17:23.644Z,97.40
2023-02-09T08:20:05.806Z,95.40
2023-02-09T08:27:24.651Z,92.50
2023-02-09T08:34:06.612Z,86.90
2023-02-09T08:36:37.615Z,88.40
2023-02-09T08:39:07.213Z,86.80
2023-02-09T08:41:35.810Z,80.20
2023-02-09T08:44:04.691Z,80.40
2023-02-09T08:46:35.622Z,79.90
2023-02-09T08:49:04.033Z,73.90
2023-02-09T08:51:32.307Z,74.50
2023-02-09T08:54:01.913Z,73.50
2023-02-09T08:56:30.252Z,72.80
2023-02-09T09:10:09.944Z,65.00
2023-02-09T09:12:40.554Z,61.40
2023-02-09T09:15:13.932Z,63.10
2023-02-09T09:20:50.470Z,54.30
2023-02-09T09:23:18.778Z,53.10
2023-02-09T09:25:48.704Z,56.00
2023-02-09T09:28:17.854Z,48.40
2023-02-09T09:30:55.860Z,48.20
2023-02-09T09:33:24.232Z,52.80
2023-02-09T09:35:52.403Z,51.10
2023-02-09T09:46:34.848Z,52.00
2023-02-09T09:49:04.382Z,49.30
2023-02-09T09:51:40.349Z,50.20
2023-02-09T09:54:18.032Z,51.10
2023-02-09T09:56:46.478Z,49.40
2023-02-09T09:59:20.006Z,47.20
2023-02-09T10:01:52.323Z,46.10
2023-02-09T10:04:21.945Z,46.20
2023-02-09T10:07:00.207Z,46.80
2023-02-09T10:09:38.734Z,40.90
2023-02-09T10:12:22.926Z,41.10
2023-02-09T10:18:18.044Z,42.00
2023-02-09T10:20:49.722Z,45.30
2023-02-09T10:23:22.142Z,45.20
2023-02-09T10:26:21.309Z,43.60
2023-02-09T10:28:53.218Z,45.60
2023-02-09T10:31:28.754Z,40.50
2023-02-09T10:42:38.898Z,38.90
2023-02-09T10:48:21.828Z,40.30
2023-02-09T10:50:55.797Z,37.60
2023-02-09T10:54:14.542Z,35.40
2023-02-09T10:56:50.929Z,36.00
2023-02-09T10:59:21.532Z,37.10
2023-02-09T11:01:57.789Z,36.00
2023-02-09T11:04:28.641Z,36.90
2023-02-09T11:07:03.782Z,33.30
2023-02-09T11:18:26.124Z,32.70
2023-02-09T11:24:15.019Z,30.60
2023-02-09T11:24:52.920Z,30.60
2023-02-09T11:27:54.726Z,32.40
2023-02-09T11:30:55.586Z,31.90
2023-02-09T11:33:34.729Z,33.00
2023-02-09T12:00:33.977Z,27.60
2023-02-09T12:03:44.316Z,29.50
2023-02-09T12:06:25.014Z,29.30
2023-02-09T12:21:10.095Z,29.30
2023-02-09T12:23:41.269Z,28.10
2023-02-09T12:34:42.241Z,28.90
2023-02-09T12:37:29.199Z,28.40
2023-02-09T12:40:26.023Z,28.10
2023-02-09T12:43:38.731Z,29.30
2023-02-09T12:46:21.452Z,30.90
2023-02-09T12:49:03.191Z,30.90
2023-02-09T12:52:10.373Z,29.90
2023-02-09T12:58:55.260Z,30.60
2023-02-09T13:01:23.691Z,29.80
2023-02-09T13:07:50.081Z,31.80
2023-02-09T13:14:23.106Z,30.40
2023-02-09T13:17:36.436Z,29.00
2023-02-09T13:20:35.674Z,29.40
2023-02-09T13:23:21.884Z,29.50
2023-02-09T13:25:50.269Z,31.60
2023-02-09T13:28:24.535Z,32.40
2023-02-09T13:30:55.138Z,30.90
2023-02-09T13:33:38.808Z,29.70
2023-02-09T13:36:30.334Z,29.70
2023-02-09T13:38:59.574Z,29.30
2023-02-09T13:41:36.088Z,29.40
2023-02-09T13:44:08.266Z,31.20
2023-02-09T13:46:39.335Z,31.60
2023-02-09T13:49:19.081Z,33.40
2023-02-09T13:51:47.521Z,34.10
2023-02-09T13:54:21.143Z,35.00
2023-02-09T13:56:49.861Z,35.10
2023-02-09T13:59:18.604Z,36.90
2023-02-09T14:01:49.167Z,36.80
2023-02-09T14:04:21.617Z,38.90
2023-02-09T14:06:59.573Z,39.40
2023-02-09T14:09:32.422Z,40.50
2023-02-09T14:12:04.903Z,38.80
2023-02-09T14:14:51.104Z,38.60
2023-02-09T14:17:27.302Z,40.00
2023-02-09T14:19:58.981Z,40.80
2023-02-09T14:22:37.863Z,40.00
2023-02-09T14:25:19.529Z,38.80
2023-02-09T14:27:52.210Z,37.60
2023-02-09T14:31:05.485Z,37.90
2023-02-09T14:33:54.368Z,38.80
2023-02-09T14:38:14.682Z,39.20
2023-02-09T14:45:41.864Z,39.20
2023-02-09T14:48:28.257Z,40.00
2023-02-09T14:51:02.330Z,39.40
2023-02-09T14:53:33.031Z,40.50
2023-02-09T14:56:01.386Z,40.50
2023-02-09T14:58:32.631Z,41.50
2023-02-09T15:01:03.183Z,42.30
2023-02-09T15:03:31.561Z,43.00
2023-02-09T15:06:04.051Z,44.10
2023-02-09T15:08:37.086Z,45.90
2023-02-09T15:11:27.262Z,47.30
2023-02-09T15:14:01.591Z,49.00
2023-02-09T15:16:29.854Z,50.50
2023-02-09T15:18:58.054Z,52.50
2023-02-09T15:21:28.023Z,54.30
2023-02-09T15:23:56.128Z,57.40
2023-02-09T15:26:26.688Z,56.70
2023-02-09T15:28:55.009Z,57.40
2023-02-09T15:31:23.324Z,59.50
2023-02-09T15:33:51.774Z,62.20
2023-02-09T15:36:21.781Z,64.60
2023-02-09T15:38:51.592Z,63.10
2023-02-09T15:41:37.443Z,63.10
2023-02-09T15:44:32.723Z,65.90
2023-02-09T15:47:20.887Z,65.70
2023-02-09T15:49:49.402Z,68.10
2023-02-09T15:52:18.843Z,71.30
2023-02-09T15:54:51.261Z,72.60
2023-02-09T15:57:19.621Z,70.70
2023-02-09T15:59:48.857Z,72.40
2023-02-09T16:02:19.462Z,73.90
2023-02-09T16:24:38.884Z,78.00
2023-02-09T16:27:16.091Z,76.50
2023-02-09T16:29:44.422Z,81.20
2023-02-09T16:32:18.331Z,79.50
2023-02-09T16:34:46.962Z,79.70
2023-02-09T16:37:17.590Z,79.10
2023-02-09T16:39:47.282Z,80.40
2023-02-09T16:42:17.079Z,81.00
2023-02-09T16:44:45.282Z,81.40
2023-02-09T16:47:19.721Z,82.10
2023-02-09T16:49:59.200Z,83.20
2023-02-09T16:52:30.182Z,85.10
2023-02-09T16:55:02.516Z,86.00
2023-02-09T16:57:30.935Z,90.10
2023-02-09T16:59:59.310Z,88.40
2023-02-09T17:02:35.232Z,88.60
2023-02-09T17:05:16.271Z,89.00
2023-02-09T17:07:54.027Z,90.10
2023-02-09T17:10:28.366Z,91.00
2023-02-09T17:12:57.043Z,91.60
2023-02-09T17:15:31.201Z,92.50
2023-02-09T17:18:04.097Z,93.40
2023-02-09T17:20:38.161Z,94.00
2023-02-09T17:23:06.416Z,94.60
2023-02-09T17:25:36.095Z,95.80
2023-02-09T17:28:04.655Z,94.90
2023-02-09T17:30:34.300Z,94.40
2023-02-09T17:33:06.743Z,94.90
2023-02-09T17:36:10.041Z,95.00
2023-02-09T17:38:30.938Z,96.20
2023-02-09T17:41:04.717Z,96.30
2023-02-09T17:43:33.389Z,97.40
2023-02-09T17:46:01.745Z,96.80
2023-02-09T17:48:30.276Z,97.20
2023-02-09T17:51:00.333Z,97.10
2023-02-09T17:53:33.748Z,97.40
2023-02-09T17:56:03.952Z,97.40
2023-02-09T17:58:32.307Z,97.40
2023-02-09T18:01:00.599Z,97.40
2023-02-09T18:03:28.949Z,97.40
2023-02-09T18:06:01.780Z,97.40
2023-02-09T18:08:31.011Z,97.40
2023-02-09T18:11:01.348Z,97.40
2023-02-09T18:13:31.175Z,97.40
2023-02-09T18:15:59.542Z,97.40
2023-02-09T18:18:27.771Z,97.40
2023-02-09T18:20:57.059Z,97.40
2023-02-09T18:23:25.324Z,97.40
2023-02-09T18:25:53.602Z,97.40
2023-02-09T18:28:21.827Z,97.40
2023-02-09T18:30:51.416Z,97.40
2023-02-09T18:33:19.637Z,97.40
2023-02-09T18:35:48.179Z,97.40
2023-02-09T18:38:16.805Z,97.40
2023-02-09T18:40:45.177Z,97.40
2023-02-09T18:43:15.635Z,97.40
2023-02-09T18:45:43.949Z,97.40
2023-02-09T18:48:13.727Z,97.40
2023-02-09T18:50:41.948Z,97.40
2023-02-09T18:53:13.166Z,97.40
2023-02-09T18:55:41.417Z,97.40
2023-02-09T18:58:10.539Z,97.40
2023-02-09T19:00:39.359Z,97.40
2023-02-09T19:03:07.667Z,97.40
2023-02-09T19:05:37.267Z,97.40
2023-02-09T19:08:07.307Z,97.40
2023-02-09T19:10:36.092Z,97.40
2023-02-09T19:13:05.288Z,97.40
2023-02-09T19:15:35.692Z,97.40
2023-02-09T19:18:04.153Z,97.40
2023-02-09T19:20:34.134Z,97.40
2023-02-09T19:23:06.664Z,97.40
2023-02-09T19:25:34.979Z,97.40
2023-02-09T19:28:03.231Z,97.40
2023-02-09T19:30:31.505Z,97.40
2023-02-09T19:33:00.169Z,97.40
2023-02-09T19:35:29.408Z,97.40
2023-02-09T19:37:59.063Z,97.40
2023-02-09T19:40:35.556Z,97.40
2023-02-09T19:43:05.045Z,97.40
2023-02-09T19:45:37.317Z,97.40
2023-02-09T19:48:07.397Z,97.40
2023-02-09T19:50:36.599Z,97.40
2023-02-09T19:53:05.420Z,97.40
2023-02-09T19:55:35.259Z,97.40
2023-02-09T19:58:03.437Z,97.40
2023-02-09T20:00:33.785Z,97.40
2023-02-09T20:03:01.985Z,97.40
2023-02-09T20:05:30.257Z,97.40
2023-02-09T20:07:58.509Z,97.40
2023-02-09T20:10:26.940Z,97.40
2023-02-09T20:12:56.455Z,97.40
2023-02-09T20:15:24.900Z,97.40
2023-02-09T20:17:53.129Z,97.40
2023-02-09T20:20:21.592Z,97.40
2023-02-09T20:22:50.584Z,97.40
2023-02-09T20:25:19.558Z,97.40
2023-02-09T20:27:50.107Z,97.40
2023-02-09T20:30:20.152Z,97.40
2023-02-09T20:32:48.737Z,97.40
2023-02-09T20:35:17.336Z,97.40
2023-02-09T20:37:45.520Z,97.40
2023-02-09T20:40:14.303Z,97.40
2023-02-09T20:43:00.408Z,97.40
2023-02-09T20:45:47.689Z,97.40
2023-02-09T20:48:15.948Z,97.40
2023-02-09T20:50:45.335Z,97.40
2023-02-09T20:53:13.872Z,97.40
2023-02-09T20:55:42.805Z,97.40
2023-02-09T20:58:13.375Z,97.40
2023-02-09T21:00:43.651Z,97.40
2023-02-09T21:03:12.330Z,97.40
2023-02-09T21:05:40.698Z,97.40
2023-02-09T21:08:09.639Z,97.40
2023-02-09T21:10:39.253Z,97.40
2023-02-09T21:13:09.464Z,97.40
2023-02-09T21:15:45.861Z,97.40
2023-02-09T21:18:14.198Z,97.40
2023-02-09T21:20:42.358Z,97.40
2023-02-09T21:23:10.557Z,97.40
2023-02-09T21:25:39.048Z,97.40
2023-02-09T21:28:07.645Z,97.40
2023-02-09T21:30:36.007Z,97.40
2023-02-09T21:33:05.544Z,97.40
2023-02-09T21:35:33.872Z,97.40
2023-02-09T21:38:02.254Z,97.40
2023-02-09T21:40:32.368Z,97.40
2023-02-09T21:43:00.547Z,97.40
2023-02-09T21:45:28.819Z,97.40
2023-02-09T21:47:57.139Z,97.40
2023-02-09T21:50:27.117Z,97.40
2023-02-09T21:52:55.378Z,97.40
2023-02-09T21:55:23.692Z,97.40
2023-02-09T21:57:52.256Z,97.40
2023-02-09T22:00:21.129Z,97.40
2023-02-09T22:02:53.929Z,97.40
2023-02-09T22:05:22.506Z,97.40
2023-02-09T22:07:53.227Z,97.40
2023-02-09T22:10:21.527Z,97.40
2023-02-09T22:12:49.864Z,97.40
2023-02-09T22:15:19.142Z,97.40
2023-02-09T22:17:48.281Z,97.40
2023-02-09T22:20:16.663Z,97.40
2023-02-09T22:22:46.213Z,97.40
2023-02-09T22:25:16.144Z,97.40
2023-02-09T22:27:44.325Z,97.40
2023-02-09T22:30:13.342Z,97.40
2023-02-09T22:32:41.508Z,97.40
2023-02-09T22:35:10.032Z,97.40
2023-02-09T22:37:38.249Z,97.40
2023-02-09T22:40:07.460Z,97.40
2023-02-09T22:42:37.622Z,97.40
2023-02-09T22:45:07.371Z,97.40
2023-02-09T22:47:35.832Z,97.40
2023-02-09T22:50:04.046Z,97.40
2023-02-09T22:52:32.296Z,97.40
2023-02-09T22:55:00.558Z,97.40
2023-02-09T22:57:28.812Z,97.40
2023-02-09T22:59:58.355Z,97.40
2023-02-09T23:02:26.722Z,97.40
2023-02-09T23:04:54.945Z,97.40
2023-02-09T23:07:23.096Z,97.40
2023-02-09T23:09:51.218Z,97.40
2023-02-09T23:12:19.562Z,97.40
2023-02-09T23:14:48.247Z,97.40
2023-02-09T23:17:17.774Z,97.40
2023-02-09T23:19:46.042Z,97.40
2023-02-09T23:22:14.233Z,97.40
2023-02-09T23:24:42.590Z,97.40
2023-02-09T23:27:10.741Z,97.40
2023-02-09T23:29:38.909Z,97.40
2023-02-09T23:32:07.196Z,97.40
2023-02-09T23:34:36.754Z,97.40
2023-02-09T23:37:13.349Z,97.40
2023-02-09T23:39:51.819Z,97.40
2023-02-09T23:42:20.074Z,97.40
2023-02-09T23:44:48.482Z,97.40
2023-02-09T23:47:16.854Z,97.40
2023-02-09T23:49:46.474Z,97.40
2023-02-09T23:52:14.628Z,97.40
2023-02-09T23:54:42.838Z,97.40
2023-02-09T23:57:11.040Z,97.40
2023-02-09T23:59:40.702Z,97.40
